sensor_id;sensor_type;location;lat;lon;timestamp;pressure;altitude;pressure_sealevel;temperature;humidity
21359;BME280;13506;50.852;20.632;2023-01-29T00:00:08;99029.91;;;-1.91;82.65
21359;BME280;13506;50.852;20.632;2023-01-29T00:02:59;99027.31;;;-1.88;82.20
21359;BME280;13506;50.852;20.632;2023-01-29T00:05:27;99027.47;;;-2.03;80.17
21359;BME280;13506;50.852;20.632;2023-01-29T00:07:56;99026.47;;;-1.88;81.18
21359;BME280;13506;50.852;20.632;2023-01-29T00:10:25;99032.38;;;-1.81;81.17
21359;BME280;13506;50.852;20.632;2023-01-29T00:12:53;99042.81;;;-1.98;81.03
21359;BME280;13506;50.852;20.632;2023-01-29T00:15:21;99041.09;;;-1.98;81.39
21359;BME280;13506;50.852;20.632;2023-01-29T00:17:49;99036.84;;;-2.00;80.98
21359;BME280;13506;50.852;20.632;2023-01-29T00:20:17;99042.72;;;-1.91;81.29
21359;BME280;13506;50.852;20.632;2023-01-29T00:22:45;99069.25;;;-1.93;81.20
21359;BME280;13506;50.852;20.632;2023-01-29T00:25:15;99061.53;;;-1.89;81.12
21359;BME280;13506;50.852;20.632;2023-01-29T00:27:42;99064.88;;;-1.85;81.28
21359;BME280;13506;50.852;20.632;2023-01-29T00:30:12;99058.06;;;-1.84;81.41
21359;BME280;13506;50.852;20.632;2023-01-29T00:32:41;99053.84;;;-1.92;81.18
21359;BME280;13506;50.852;20.632;2023-01-29T00:35:10;99054.63;;;-1.83;80.16
21359;BME280;13506;50.852;20.632;2023-01-29T00:37:38;99062.28;;;-1.80;80.98
21359;BME280;13506;50.852;20.632;2023-01-29T00:40:07;99068.22;;;-1.75;81.30
21359;BME280;13506;50.852;20.632;2023-01-29T00:42:37;99068.28;;;-1.81;80.73
21359;BME280;13506;50.852;20.632;2023-01-29T00:45:22;99063.25;;;-1.94;80.38
21359;BME280;13506;50.852;20.632;2023-01-29T00:47:50;99055.59;;;-1.95;80.57
21359;BME280;13506;50.852;20.632;2023-01-29T00:50:18;99066.66;;;-1.92;81.30
21359;BME280;13506;50.852;20.632;2023-01-29T00:52:46;99061.53;;;-1.89;80.28
21359;BME280;13506;50.852;20.632;2023-01-29T00:55:15;99061.53;;;-1.89;80.19
21359;BME280;13506;50.852;20.632;2023-01-29T00:57:45;99062.34;;;-1.87;80.26
21359;BME280;13506;50.852;20.632;2023-01-29T01:00:16;99047.88;;;-1.91;79.29
21359;BME280;13506;50.852;20.632;2023-01-29T01:02:45;99054.69;;;-1.90;79.10
21359;BME280;13506;50.852;20.632;2023-01-29T01:05:31;99053.81;;;-1.87;79.73
21359;BME280;13506;50.852;20.632;2023-01-29T01:07:59;99047.81;;;-1.84;79.33
21359;BME280;13506;50.852;20.632;2023-01-29T01:10:30;99047.81;;;-1.84;78.63
21359;BME280;13506;50.852;20.632;2023-01-29T01:13:01;99034.94;;;-1.81;77.96
21359;BME280;13506;50.852;20.632;2023-01-29T01:15:34;99033.19;;;-1.79;77.67
21359;BME280;13506;50.852;20.632;2023-01-29T01:18:03;99031.53;;;-1.82;76.90
21359;BME280;13506;50.852;20.632;2023-01-29T01:20:34;99036.59;;;-1.76;77.47
21359;BME280;13506;50.852;20.632;2023-01-29T01:23:02;99024.59;;;-1.75;76.82
21359;BME280;13506;50.852;20.632;2023-01-29T01:25:31;99018.72;;;-1.85;76.38
21359;BME280;13506;50.852;20.632;2023-01-29T01:28:00;99022.13;;;-1.83;76.40
21359;BME280;13506;50.852;20.632;2023-01-29T01:30:29;99020.50;;;-1.89;75.05
21359;BME280;13506;50.852;20.632;2023-01-29T01:32:58;99006.00;;;-1.94;74.94
21359;BME280;13506;50.852;20.632;2023-01-29T01:35:27;99002.53;;;-1.89;76.02
21359;BME280;13506;50.852;20.632;2023-01-29T01:37:55;98990.50;;;-1.85;75.92
21359;BME280;13506;50.852;20.632;2023-01-29T01:40:24;98996.47;;;-1.80;74.92
21359;BME280;13506;50.852;20.632;2023-01-29T01:42:55;98998.13;;;-1.74;75.76
21359;BME280;13506;50.852;20.632;2023-01-29T01:45:27;99001.47;;;-1.69;74.96
21359;BME280;13506;50.852;20.632;2023-01-29T01:48:00;99001.47;;;-1.71;74.85
21359;BME280;13506;50.852;20.632;2023-01-29T01:50:34;98990.31;;;-1.68;74.28
21359;BME280;13506;50.852;20.632;2023-01-29T01:53:06;98989.47;;;-1.67;74.10
21359;BME280;13506;50.852;20.632;2023-01-29T01:55:40;98994.59;;;-1.65;74.00
21359;BME280;13506;50.852;20.632;2023-01-29T01:58:17;98991.28;;;-1.75;73.61
21359;BME280;13506;50.852;20.632;2023-01-29T02:00:48;99005.34;;;-2.10;71.60
21359;BME280;13506;50.852;20.632;2023-01-29T02:03:18;99011.13;;;-1.91;71.80
21359;BME280;13506;50.852;20.632;2023-01-29T02:06:04;99007.75;;;-1.95;72.20
21359;BME280;13506;50.852;20.632;2023-01-29T02:08:55;99010.38;;;-2.01;72.10
21359;BME280;13506;50.852;20.632;2023-01-29T02:11:43;99011.38;;;-2.16;72.33
21359;BME280;13506;50.852;20.632;2023-01-29T02:14:11;99016.44;;;-2.08;72.79
21359;BME280;13506;50.852;20.632;2023-01-29T02:16:41;99001.88;;;-2.06;73.59
21359;BME280;13506;50.852;20.632;2023-01-29T02:19:15;98994.28;;;-2.14;73.35
21359;BME280;13506;50.852;20.632;2023-01-29T02:22:17;99001.91;;;-2.08;73.01
21359;BME280;13506;50.852;20.632;2023-01-29T02:25:29;99011.31;;;-2.10;73.49
21359;BME280;13506;50.852;20.632;2023-01-29T02:28:21;99006.13;;;-2.05;73.89
21359;BME280;13506;50.852;20.632;2023-01-29T02:31:00;99016.31;;;-1.99;73.34
21359;BME280;13506;50.852;20.632;2023-01-29T02:33:40;99000.09;;;-1.99;72.60
21359;BME280;13506;50.852;20.632;2023-01-29T02:36:25;99001.78;;;-1.97;72.25
21359;BME280;13506;50.852;20.632;2023-01-29T02:39:02;99012.91;;;-1.99;71.64
21359;BME280;13506;50.852;20.632;2023-01-29T02:41:39;99009.47;;;-1.95;71.66
21359;BME280;13506;50.852;20.632;2023-01-29T02:44:19;99011.13;;;-1.93;70.56
21359;BME280;13506;50.852;20.632;2023-01-29T02:46:58;99009.47;;;-1.97;70.26
21359;BME280;13506;50.852;20.632;2023-01-29T02:49:34;99018.84;;;-1.96;69.71
21359;BME280;13506;50.852;20.632;2023-01-29T02:52:08;99006.91;;;-1.98;69.94
21359;BME280;13506;50.852;20.632;2023-01-29T02:54:46;99017.28;;;-2.11;69.30
21359;BME280;13506;50.852;20.632;2023-01-29T02:57:22;99036.94;;;-2.08;69.60
21359;BME280;13506;50.852;20.632;2023-01-29T02:59:56;99046.44;;;-2.19;70.03
21359;BME280;13506;50.852;20.632;2023-01-29T03:02:31;99038.88;;;-2.35;70.34
21359;BME280;13506;50.852;20.632;2023-01-29T03:05:09;99023.56;;;-2.42;70.51
21359;BME280;13506;50.852;20.632;2023-01-29T03:07:43;99037.25;;;-2.46;70.08
21359;BME280;13506;50.852;20.632;2023-01-29T03:10:30;99031.31;;;-2.47;70.18
21359;BME280;13506;50.852;20.632;2023-01-29T03:13:05;99027.91;;;-2.49;70.36
21359;BME280;13506;50.852;20.632;2023-01-29T03:15:40;99022.88;;;-2.61;70.23
21359;BME280;13506;50.852;20.632;2023-01-29T03:18:34;99029.81;;;-2.73;70.97
21359;BME280;13506;50.852;20.632;2023-01-29T03:21:11;99047.75;;;-2.76;69.92
21359;BME280;13506;50.852;20.632;2023-01-29T03:23:56;99030.69;;;-2.78;69.93
21359;BME280;13506;50.852;20.632;2023-01-29T03:26:43;99043.47;;;-2.77;69.85
21359;BME280;13506;50.852;20.632;2023-01-29T03:29:34;99035.75;;;-2.71;69.64
21359;BME280;13506;50.852;20.632;2023-01-29T03:32:29;99014.44;;;-2.73;69.33
21359;BME280;13506;50.852;20.632;2023-01-29T03:35:02;99015.28;;;-2.71;69.50
21359;BME280;13506;50.852;20.632;2023-01-29T03:37:35;99009.28;;;-2.66;69.78
21359;BME280;13506;50.852;20.632;2023-01-29T03:40:08;99028.03;;;-2.63;69.26
21359;BME280;13506;50.852;20.632;2023-01-29T03:42:53;99021.19;;;-2.64;68.95
21359;BME280;13506;50.852;20.632;2023-01-29T03:45:35;99022.06;;;-2.68;69.16
21359;BME280;13506;50.852;20.632;2023-01-29T03:48:14;99014.41;;;-2.66;69.25
21359;BME280;13506;50.852;20.632;2023-01-29T03:50:53;99008.38;;;-2.64;68.85
21359;BME280;13506;50.852;20.632;2023-01-29T03:53:28;99007.56;;;-2.67;67.92
21359;BME280;13506;50.852;20.632;2023-01-29T03:56:02;99008.44;;;-2.70;68.07
21359;BME280;13506;50.852;20.632;2023-01-29T03:58:38;98993.16;;;-2.79;68.49
21359;BME280;13506;50.852;20.632;2023-01-29T04:01:17;99002.56;;;-2.80;68.00
21359;BME280;13506;50.852;20.632;2023-01-29T04:03:52;98994.00;;;-2.76;68.24
21359;BME280;13506;50.852;20.632;2023-01-29T04:06:28;99000.97;;;-2.98;67.13
21359;BME280;13506;50.852;20.632;2023-01-29T04:09:07;99001.00;;;-3.02;67.15
21359;BME280;13506;50.852;20.632;2023-01-29T04:11:46;98991.59;;;-2.99;67.35
21359;BME280;13506;50.852;20.632;2023-01-29T04:14:15;98992.41;;;-2.92;67.72
21359;BME280;13506;50.852;20.632;2023-01-29T04:16:50;98981.25;;;-2.82;67.79
21359;BME280;13506;50.852;20.632;2023-01-29T04:19:43;98973.56;;;-2.82;66.31
21359;BME280;13506;50.852;20.632;2023-01-29T04:22:18;98977.72;;;-2.70;67.58
21359;BME280;13506;50.852;20.632;2023-01-29T04:24:49;98971.75;;;-2.72;66.66
21359;BME280;13506;50.852;20.632;2023-01-29T04:27:28;98974.34;;;-2.75;66.52
21359;BME280;13506;50.852;20.632;2023-01-29T04:30:25;98976.91;;;-2.74;66.67
21359;BME280;13506;50.852;20.632;2023-01-29T04:33:06;98977.69;;;-2.69;66.30
21359;BME280;13506;50.852;20.632;2023-01-29T04:35:57;98975.22;;;-2.78;66.29
21359;BME280;13506;50.852;20.632;2023-01-29T04:38:45;98965.84;;;-2.80;66.35
21359;BME280;13506;50.852;20.632;2023-01-29T04:41:21;98971.00;;;-2.85;66.43
21359;BME280;13506;50.852;20.632;2023-01-29T04:43:59;98978.78;;;-2.97;67.10
21359;BME280;13506;50.852;20.632;2023-01-29T04:46:36;98966.84;;;-2.98;66.92
21359;BME280;13506;50.852;20.632;2023-01-29T04:49:17;98973.66;;;-2.97;67.11
21359;BME280;13506;50.852;20.632;2023-01-29T04:52:00;98972.88;;;-3.07;67.16
21359;BME280;13506;50.852;20.632;2023-01-29T04:54:48;98967.69;;;-2.98;67.33
21359;BME280;13506;50.852;20.632;2023-01-29T04:57:23;98966.81;;;-2.95;66.90
21359;BME280;13506;50.852;20.632;2023-01-29T05:00:01;98970.22;;;-2.92;66.97
21359;BME280;13506;50.852;20.632;2023-01-29T05:02:31;98966.81;;;-2.95;66.41
21359;BME280;13506;50.852;20.632;2023-01-29T05:05:02;98968.53;;;-2.93;66.61
21359;BME280;13506;50.852;20.632;2023-01-29T05:07:35;98971.97;;;-2.98;66.27
21359;BME280;13506;50.852;20.632;2023-01-29T05:10:06;98973.59;;;-2.88;66.94
21359;BME280;13506;50.852;20.632;2023-01-29T05:12:36;98981.25;;;-2.82;67.09
21359;BME280;13506;50.852;20.632;2023-01-29T05:15:13;98976.06;;;-2.77;66.80
21359;BME280;13506;50.852;20.632;2023-01-29T05:17:42;98976.91;;;-2.74;66.48
21359;BME280;13506;50.852;20.632;2023-01-29T05:20:12;98978.63;;;-2.79;66.38
21359;BME280;13506;50.852;20.632;2023-01-29T05:22:42;98959.94;;;-2.87;66.92
21359;BME280;13506;50.852;20.632;2023-01-29T05:25:21;98974.31;;;-2.72;66.76
21359;BME280;13506;50.852;20.632;2023-01-29T05:27:51;98986.25;;;-2.70;66.60
21359;BME280;13506;50.852;20.632;2023-01-29T05:30:31;98979.38;;;-2.66;66.29
21359;BME280;13506;50.852;20.632;2023-01-29T05:32:59;98986.16;;;-2.59;66.38
21359;BME280;13506;50.852;20.632;2023-01-29T05:35:27;98981.06;;;-2.60;65.58
21359;BME280;13506;50.852;20.632;2023-01-29T05:37:57;98976.72;;;-2.52;66.40
21359;BME280;13506;50.852;20.632;2023-01-29T05:40:25;98972.44;;;-2.53;66.17
21359;BME280;13506;50.852;20.632;2023-01-29T05:42:53;98969.09;;;-2.58;65.57
21359;BME280;13506;50.852;20.632;2023-01-29T05:45:21;98972.47;;;-2.56;65.77
21359;BME280;13506;50.852;20.632;2023-01-29T05:47:49;98969.88;;;-2.53;66.31
21359;BME280;13506;50.852;20.632;2023-01-29T05:50:17;98979.22;;;-2.49;65.77
21359;BME280;13506;50.852;20.632;2023-01-29T05:52:46;98981.84;;;-2.55;65.72
21359;BME280;13506;50.852;20.632;2023-01-29T05:55:15;98977.50;;;-2.49;66.25
21359;BME280;13506;50.852;20.632;2023-01-29T05:57:43;98968.09;;;-2.45;66.48
21359;BME280;13506;50.852;20.632;2023-01-29T06:00:12;98963.84;;;-2.46;65.78
21359;BME280;13506;50.852;20.632;2023-01-29T06:02:40;98966.38;;;-2.43;66.36
21359;BME280;13506;50.852;20.632;2023-01-29T06:05:08;98966.38;;;-2.43;65.41
21359;BME280;13506;50.852;20.632;2023-01-29T06:07:36;98971.47;;;-2.40;66.32
21359;BME280;13506;50.852;20.632;2023-01-29T06:10:06;98958.59;;;-2.34;65.30
21359;BME280;13506;50.852;20.632;2023-01-29T06:12:36;98964.53;;;-2.32;65.51
21359;BME280;13506;50.852;20.632;2023-01-29T06:15:04;98972.16;;;-2.25;65.08
21359;BME280;13506;50.852;20.632;2023-01-29T06:17:33;98974.72;;;-2.25;64.82
21359;BME280;13506;50.852;20.632;2023-01-29T06:20:01;98979.00;;;-2.23;65.39
21359;BME280;13506;50.852;20.632;2023-01-29T06:22:29;98972.16;;;-2.22;65.18
21359;BME280;13506;50.852;20.632;2023-01-29T06:24:57;98973.88;;;-2.23;65.42
21359;BME280;13506;50.852;20.632;2023-01-29T06:27:25;98964.47;;;-2.22;64.47
21359;BME280;13506;50.852;20.632;2023-01-29T06:29:54;98978.22;;;-2.33;64.51
21359;BME280;13506;50.852;20.632;2023-01-29T06:32:23;98971.38;;;-2.31;65.01
21359;BME280;13506;50.852;20.632;2023-01-29T06:34:50;98970.50;;;-2.30;65.11
21359;BME280;13506;50.852;20.632;2023-01-29T06:37:19;98959.41;;;-2.27;65.89
21359;BME280;13506;50.852;20.632;2023-01-29T06:39:47;98966.22;;;-2.28;64.85
21359;BME280;13506;50.852;20.632;2023-01-29T06:42:15;98965.34;;;-2.26;64.90
21359;BME280;13506;50.852;20.632;2023-01-29T06:44:43;98956.84;;;-2.27;64.89
21359;BME280;13506;50.852;20.632;2023-01-29T06:47:13;98955.94;;;-2.24;65.31
21359;BME280;13506;50.852;20.632;2023-01-29T06:49:41;98969.59;;;-2.25;64.67
21359;BME280;13506;50.852;20.632;2023-01-29T06:52:10;98970.44;;;-2.23;64.79
21359;BME280;13506;50.852;20.632;2023-01-29T06:54:38;98977.22;;;-2.18;64.83
21359;BME280;13506;50.852;20.632;2023-01-29T06:57:06;98988.31;;;-2.16;65.02
21359;BME280;13506;50.852;20.632;2023-01-29T06:59:34;98984.84;;;-2.10;64.74
21359;BME280;13506;50.852;20.632;2023-01-29T07:02:03;98988.25;;;-2.08;65.46
21359;BME280;13506;50.852;20.632;2023-01-29T07:04:31;98975.44;;;-2.08;64.83
21359;BME280;13506;50.852;20.632;2023-01-29T07:07:01;98979.66;;;-2.07;65.36
21359;BME280;13506;50.852;20.632;2023-01-29T07:09:29;98979.66;;;-2.07;65.45
21359;BME280;13506;50.852;20.632;2023-01-29T07:11:57;98986.47;;;-2.03;64.75
21359;BME280;13506;50.852;20.632;2023-01-29T07:14:25;98982.22;;;-2.04;63.92
21359;BME280;13506;50.852;20.632;2023-01-29T07:16:53;98993.25;;;-1.99;64.40
21359;BME280;13506;50.852;20.632;2023-01-29T07:19:21;98985.56;;;-1.97;64.51
21359;BME280;13506;50.852;20.632;2023-01-29T07:21:51;98996.66;;;-1.95;64.42
21359;BME280;13506;50.852;20.632;2023-01-29T07:24:19;99000.00;;;-1.92;64.42
21359;BME280;13506;50.852;20.632;2023-01-29T07:26:47;99002.56;;;-1.92;65.03
21359;BME280;13506;50.852;20.632;2023-01-29T07:29:16;98998.25;;;-1.87;64.28
21359;BME280;13506;50.852;20.632;2023-01-29T07:31:45;99009.34;;;-1.86;64.28
21359;BME280;13506;50.852;20.632;2023-01-29T07:34:12;99014.47;;;-1.84;64.31
21359;BME280;13506;50.852;20.632;2023-01-29T07:36:41;99020.38;;;-1.79;64.22
21359;BME280;13506;50.852;20.632;2023-01-29T07:39:10;99011.78;;;-1.75;64.66
21359;BME280;13506;50.852;20.632;2023-01-29T07:41:38;99004.09;;;-1.75;64.22
21359;BME280;13506;50.852;20.632;2023-01-29T07:44:15;99005.81;;;-1.76;64.26
21359;BME280;13506;50.852;20.632;2023-01-29T07:46:43;99009.28;;;-1.80;63.53
21359;BME280;13506;50.852;20.632;2023-01-29T07:49:11;99014.41;;;-1.80;64.46
21359;BME280;13506;50.852;20.632;2023-01-29T07:51:40;99011.84;;;-1.78;63.91
21359;BME280;13506;50.852;20.632;2023-01-29T07:54:09;99013.66;;;-1.90;63.98
21359;BME280;13506;50.852;20.632;2023-01-29T07:56:37;99014.66;;;-2.03;63.92
21359;BME280;13506;50.852;20.632;2023-01-29T07:59:05;99013.75;;;-1.99;64.67
21359;BME280;13506;50.852;20.632;2023-01-29T08:01:33;99011.22;;;-2.00;65.09
21359;BME280;13506;50.852;20.632;2023-01-29T08:04:01;99019.72;;;-1.97;65.21
21359;BME280;13506;50.852;20.632;2023-01-29T08:06:29;99017.09;;;-1.91;64.96
21359;BME280;13506;50.852;20.632;2023-01-29T08:08:57;99016.22;;;-1.88;65.45
21359;BME280;13506;50.852;20.632;2023-01-29T08:11:27;99023.00;;;-1.85;65.36
21359;BME280;13506;50.852;20.632;2023-01-29T08:13:55;99014.47;;;-1.84;65.05
21359;BME280;13506;50.852;20.632;2023-01-29T08:16:24;99001.66;;;-1.84;65.25
21359;BME280;13506;50.852;20.632;2023-01-29T08:18:52;99002.47;;;-1.82;65.31
21359;BME280;13506;50.852;20.632;2023-01-29T08:21:20;98999.03;;;-1.83;65.15
21359;BME280;13506;50.852;20.632;2023-01-29T08:23:48;99007.56;;;-1.79;65.54
21359;BME280;13506;50.852;20.632;2023-01-29T08:26:16;99001.53;;;-1.75;65.52
21359;BME280;13506;50.852;20.632;2023-01-29T08:28:45;99003.19;;;-1.71;65.77
21359;BME280;13506;50.852;20.632;2023-01-29T08:31:14;98996.25;;;-1.63;65.71
21359;BME280;13506;50.852;20.632;2023-01-29T08:33:42;98998.75;;;-1.57;65.27
21359;BME280;13506;50.852;20.632;2023-01-29T08:36:10;98991.91;;;-1.56;65.14
21359;BME280;13506;50.852;20.632;2023-01-29T08:38:39;99001.34;;;-1.60;65.58
21359;BME280;13506;50.852;20.632;2023-01-29T08:41:07;98995.34;;;-1.57;65.36
21359;BME280;13506;50.852;20.632;2023-01-29T08:43:35;98987.59;;;-1.54;65.66
21359;BME280;13506;50.852;20.632;2023-01-29T08:46:06;98994.47;;;-1.58;65.97
21359;BME280;13506;50.852;20.632;2023-01-29T08:48:34;99005.47;;;-1.50;66.67
21359;BME280;13506;50.852;20.632;2023-01-29T08:51:03;99009.09;;;-1.66;66.36
21359;BME280;13506;50.852;20.632;2023-01-29T08:53:31;99003.75;;;-1.46;67.28
21359;BME280;13506;50.852;20.632;2023-01-29T08:55:59;99010.59;;;-1.47;67.30
21359;BME280;13506;50.852;20.632;2023-01-29T08:58:27;99009.63;;;-1.39;67.03
21359;BME280;13506;50.852;20.632;2023-01-29T09:00:55;99004.38;;;-1.30;66.97
21359;BME280;13506;50.852;20.632;2023-01-29T09:03:25;98996.63;;;-1.26;67.10
21359;BME280;13506;50.852;20.632;2023-01-29T09:05:53;98996.50;;;-1.18;67.50
21359;BME280;13506;50.852;20.632;2023-01-29T09:08:21;98989.34;;;-0.96;67.64
21359;BME280;13506;50.852;20.632;2023-01-29T09:10:50;98999.22;;;-0.71;67.49
21359;BME280;13506;50.852;20.632;2023-01-29T09:13:18;98993.59;;;-0.40;66.78
21359;BME280;13506;50.852;20.632;2023-01-29T09:15:46;98981.78;;;-0.04;65.86
21359;BME280;13506;50.852;20.632;2023-01-29T09:18:14;98990.75;;;0.20;63.04
21359;BME280;13506;50.852;20.632;2023-01-29T09:20:43;98985.66;;;0.19;62.96
21359;BME280;13506;50.852;20.632;2023-01-29T09:23:11;98977.00;;;0.21;62.22
21359;BME280;13506;50.852;20.632;2023-01-29T09:25:42;98978.03;;;0.12;61.53
21359;BME280;13506;50.852;20.632;2023-01-29T09:28:10;98978.31;;;-0.01;62.22
21359;BME280;13506;50.852;20.632;2023-01-29T09:30:38;98973.75;;;0.13;63.05
21359;BME280;13506;50.852;20.632;2023-01-29T09:33:06;98978.75;;;0.21;62.73
21359;BME280;13506;50.852;20.632;2023-01-29T09:35:35;98981.13;;;0.30;62.79
21359;BME280;13506;50.852;20.632;2023-01-29T09:38:04;98967.56;;;0.22;61.50
21359;BME280;13506;50.852;20.632;2023-01-29T09:40:40;98967.78;;;0.11;61.87
21359;BME280;13506;50.852;20.632;2023-01-29T09:43:17;98965.06;;;0.19;61.79
21359;BME280;13506;50.852;20.632;2023-01-29T09:45:54;98974.19;;;0.33;60.71
21359;BME280;13506;50.852;20.632;2023-01-29T09:48:28;98962.38;;;0.25;60.80
21359;BME280;13506;50.852;20.632;2023-01-29T09:51:01;98963.97;;;0.29;59.43
21359;BME280;13506;50.852;20.632;2023-01-29T09:53:38;98960.56;;;0.28;59.74
21359;BME280;13506;50.852;20.632;2023-01-29T09:56:13;98950.44;;;0.21;59.97
21359;BME280;13506;50.852;20.632;2023-01-29T09:58:43;98935.94;;;0.16;59.64
21359;BME280;13506;50.852;20.632;2023-01-29T10:01:17;98939.50;;;0.09;59.67
21359;BME280;13506;50.852;20.632;2023-01-29T10:04:26;98930.09;;;0.08;59.41
21359;BME280;13506;50.852;20.632;2023-01-29T10:07:23;98918.09;;;0.07;58.91
21359;BME280;13506;50.852;20.632;2023-01-29T10:10:10;98914.91;;;-0.04;59.79
21359;BME280;13506;50.852;20.632;2023-01-29T10:12:59;98907.28;;;-0.07;60.11
21359;BME280;13506;50.852;20.632;2023-01-29T10:15:45;98899.25;;;0.08;60.10
21359;BME280;13506;50.852;20.632;2023-01-29T10:22:05;98871.19;;;0.36;59.81
21359;BME280;13506;50.852;20.632;2023-01-29T10:24:40;98871.44;;;0.63;58.77
21359;BME280;13506;50.852;20.632;2023-01-29T10:27:16;98858.56;;;0.99;58.87
21359;BME280;13506;50.852;20.632;2023-01-29T10:29:49;98850.59;;;1.08;55.91
21359;BME280;13506;50.852;20.632;2023-01-29T10:32:24;98851.88;;;1.25;55.66
21359;BME280;13506;50.852;20.632;2023-01-29T10:34:57;98858.28;;;1.10;54.52
21359;BME280;13506;50.852;20.632;2023-01-29T10:37:38;98856.69;;;1.04;55.02
21359;BME280;13506;50.852;20.632;2023-01-29T10:40:21;98839.09;;;0.87;55.00
21359;BME280;13506;50.852;20.632;2023-01-29T10:42:57;98824.69;;;0.80;55.84
21359;BME280;13506;50.852;20.632;2023-01-29T10:45:33;98836.47;;;1.23;56.20
21359;BME280;13506;50.852;20.632;2023-01-29T10:48:42;98840.88;;;1.51;55.27
21359;BME280;13506;50.852;20.632;2023-01-29T10:51:31;98843.97;;;1.62;54.38
21359;BME280;13506;50.852;20.632;2023-01-29T10:54:21;98823.72;;;2.09;54.16
21359;BME280;13506;50.852;20.632;2023-01-29T10:57:08;98828.91;;;2.36;52.70
21359;BME280;13506;50.852;20.632;2023-01-29T11:00:01;98831.25;;;2.45;52.45
21359;BME280;13506;50.852;20.632;2023-01-29T11:02:33;98829.47;;;2.47;52.42
21359;BME280;13506;50.852;20.632;2023-01-29T11:05:01;98825.69;;;2.29;52.02
21359;BME280;13506;50.852;20.632;2023-01-29T11:07:29;98825.22;;;2.16;51.99
21359;BME280;13506;50.852;20.632;2023-01-29T11:10:06;98819.88;;;1.94;51.58
21359;BME280;13506;50.852;20.632;2023-01-29T11:12:35;98815.34;;;1.73;51.87
21359;BME280;13506;50.852;20.632;2023-01-29T11:15:15;98801.69;;;1.38;52.76
21359;BME280;13506;50.852;20.632;2023-01-29T11:18:00;98804.63;;;0.93;53.27
21359;BME280;13506;50.852;20.632;2023-01-29T11:20:31;98792.31;;;0.70;54.45
21359;BME280;13506;50.852;20.632;2023-01-29T11:22:59;98795.34;;;0.51;55.65
21359;BME280;13506;50.852;20.632;2023-01-29T11:25:28;98792.78;;;0.50;55.80
21359;BME280;13506;50.852;20.632;2023-01-29T11:28:00;98793.19;;;0.33;55.81
21359;BME280;13506;50.852;20.632;2023-01-29T11:30:32;98804.59;;;0.23;56.34
21359;BME280;13506;50.852;20.632;2023-01-29T11:33:18;98793.59;;;0.16;56.61
21359;BME280;13506;50.852;20.632;2023-01-29T11:35:47;98788.00;;;-0.03;56.56
21359;BME280;13506;50.852;20.632;2023-01-29T11:38:20;98782.25;;;-0.13;57.51
21359;BME280;13506;50.852;20.632;2023-01-29T11:40:49;98779.69;;;-0.14;57.70
21359;BME280;13506;50.852;20.632;2023-01-29T11:43:22;98777.13;;;-0.14;58.69
21359;BME280;13506;50.852;20.632;2023-01-29T11:45:57;98783.06;;;-0.11;58.90
21359;BME280;13506;50.852;20.632;2023-01-29T11:48:38;98784.72;;;-0.08;59.33
21359;BME280;13506;50.852;20.632;2023-01-29T11:51:10;98784.50;;;0.01;59.28
21359;BME280;13506;50.852;20.632;2023-01-29T11:53:42;98780.84;;;0.11;58.90
21359;BME280;13506;50.852;20.632;2023-01-29T11:56:21;98782.47;;;0.15;58.80
21359;BME280;13506;50.852;20.632;2023-01-29T11:58:53;98780.84;;;0.11;58.70
21359;BME280;13506;50.852;20.632;2023-01-29T12:01:31;98768.88;;;0.10;59.02
21359;BME280;13506;50.852;20.632;2023-01-29T12:04:13;98772.59;;;-0.03;58.87
21359;BME280;13506;50.852;20.632;2023-01-29T12:06:45;98768.31;;;-0.03;59.14
21359;BME280;13506;50.852;20.632;2023-01-29T12:09:20;98779.72;;;-0.16;58.99
21359;BME280;13506;50.852;20.632;2023-01-29T12:11:49;98760.06;;;-0.18;59.66
21359;BME280;13506;50.852;20.632;2023-01-29T12:14:28;98763.66;;;-0.26;60.21
21359;BME280;13506;50.852;20.632;2023-01-29T12:17:05;98758.41;;;-0.19;60.07
21359;BME280;13506;50.852;20.632;2023-01-29T12:19:42;98749.06;;;-0.24;60.30
21359;BME280;13506;50.852;20.632;2023-01-29T12:22:20;98760.06;;;-0.18;60.03
21359;BME280;13506;50.852;20.632;2023-01-29T12:24:55;98759.16;;;-0.16;60.10
21359;BME280;13506;50.852;20.632;2023-01-29T12:27:30;98752.31;;;-0.15;59.37
21359;BME280;13506;50.852;20.632;2023-01-29T12:30:09;98748.00;;;-0.15;59.83
21359;BME280;13506;50.852;20.632;2023-01-29T12:32:48;98747.47;;;-0.29;59.80
21359;BME280;13506;50.852;20.632;2023-01-29T12:35:21;98740.72;;;-0.35;59.96
21359;BME280;13506;50.852;20.632;2023-01-29T12:37:55;98716.78;;;-0.37;60.17
21359;BME280;13506;50.852;20.632;2023-01-29T12:40:31;98723.63;;;-0.36;59.91
21359;BME280;13506;50.852;20.632;2023-01-29T12:43:10;98707.47;;;-0.41;60.78
21359;BME280;13506;50.852;20.632;2023-01-29T12:45:41;98716.63;;;-0.29;60.64
21359;BME280;13506;50.852;20.632;2023-01-29T12:48:16;98711.31;;;-0.21;60.73
21359;BME280;13506;50.852;20.632;2023-01-29T12:50:48;98706.03;;;-0.15;61.00
21359;BME280;13506;50.852;20.632;2023-01-29T12:53:24;98714.56;;;-0.13;61.14
21359;BME280;13506;50.852;20.632;2023-01-29T12:55:56;98709.44;;;-0.15;60.57
21359;BME280;13506;50.852;20.632;2023-01-29T12:58:30;98705.94;;;-0.12;61.13
21359;BME280;13506;50.852;20.632;2023-01-29T13:01:07;98707.66;;;-0.11;61.13
21359;BME280;13506;50.852;20.632;2023-01-29T13:03:48;98706.88;;;-0.15;61.79
21359;BME280;13506;50.852;20.632;2023-01-29T13:06:22;98704.28;;;-0.13;62.05
21359;BME280;13506;50.852;20.632;2023-01-29T13:08:56;98699.16;;;-0.15;61.66
21359;BME280;13506;50.852;20.632;2023-01-29T13:11:33;98700.03;;;-0.16;61.53
21359;BME280;13506;50.852;20.632;2023-01-29T13:14:08;98699.31;;;-0.22;62.26
21359;BME280;13506;50.852;20.632;2023-01-29T13:16:43;98694.31;;;-0.29;62.73
21359;BME280;13506;50.852;20.632;2023-01-29T13:19:23;98690.03;;;-0.28;63.55
21359;BME280;13506;50.852;20.632;2023-01-29T13:21:55;98683.88;;;-0.21;63.50
21359;BME280;13506;50.852;20.632;2023-01-29T13:24:29;98682.09;;;-0.17;62.96
21359;BME280;13506;50.852;20.632;2023-01-29T13:27:00;98685.38;;;-0.12;63.64
21359;BME280;13506;50.852;20.632;2023-01-29T13:29:29;98681.84;;;-0.08;63.78